sensor_id;sensor_type;location;lat;lon;timestamp;P1;durP1;ratioP1;P2;durP2;ratioP2
59970;SDS011;45825;45.434;9.116;2023-05-27T00:02:15;13.88;;;6.93;;
59970;SDS011;45825;45.434;9.116;2023-05-27T00:04:40;14.65;;;6.75;;
59970;SDS011;45825;45.434;9.116;2023-05-27T00:07:06;11.98;;;6.55;;
59970;SDS011;45825;45.434;9.116;2023-05-27T00:09:31;12.98;;;6.68;;
59970;SDS011;45825;45.434;9.116;2023-05-27T00:11:56;14.40;;;6.47;;
59970;SDS011;45825;45.434;9.116;2023-05-27T00:14:22;10.98;;;6.82;;
59970;SDS011;45825;45.434;9.116;2023-05-27T00:16:47;13.65;;;6.68;;
59970;SDS011;45825;45.434;9.116;2023-05-27T00:19:14;13.02;;;6.97;;
59970;SDS011;45825;45.434;9.116;2023-05-27T00:21:41;15.25;;;8.02;;
59970;SDS011;45825;45.434;9.116;2023-05-27T00:24:07;12.80;;;7.72;;
59970;SDS011;45825;45.434;9.116;2023-05-27T00:26:32;15.20;;;8.23;;
59970;SDS011;45825;45.434;9.116;2023-05-27T00:28:57;15.18;;;7.65;;
59970;SDS011;45825;45.434;9.116;2023-05-27T00:31:24;12.07;;;7.07;;
59970;SDS011;45825;45.434;9.116;2023-05-27T00:33:50;13.10;;;7.50;;
59970;SDS011;45825;45.434;9.116;2023-05-27T00:36:15;12.38;;;6.35;;
59970;SDS011;45825;45.434;9.116;2023-05-27T00:38:42;13.20;;;7.13;;
59970;SDS011;45825;45.434;9.116;2023-05-27T00:41:07;11.18;;;6.63;;
59970;SDS011;45825;45.434;9.116;2023-05-27T00:43:36;14.15;;;6.63;;
59970;SDS011;45825;45.434;9.116;2023-05-27T00:46:01;15.40;;;7.13;;
59970;SDS011;45825;45.434;9.116;2023-05-27T00:48:27;14.32;;;6.82;;
59970;SDS011;45825;45.434;9.116;2023-05-27T00:50:54;15.32;;;7.80;;
59970;SDS011;45825;45.434;9.116;2023-05-27T00:53:20;16.58;;;7.85;;
59970;SDS011;45825;45.434;9.116;2023-05-27T00:55:46;13.07;;;7.88;;
59970;SDS011;45825;45.434;9.116;2023-05-27T00:58:12;14.40;;;8.18;;
59970;SDS011;45825;45.434;9.116;2023-05-27T01:00:38;12.85;;;8.35;;
59970;SDS011;45825;45.434;9.116;2023-05-27T01:03:04;13.77;;;8.55;;
59970;SDS011;45825;45.434;9.116;2023-05-27T01:05:31;17.08;;;9.55;;
59970;SDS011;45825;45.434;9.116;2023-05-27T01:07:59;18.45;;;9.38;;
59970;SDS011;45825;45.434;9.116;2023-05-27T01:10:39;13.30;;;9.60;;
59970;SDS011;45825;45.434;9.116;2023-05-27T01:15:40;17.13;;;11.20;;
59970;SDS011;45825;45.434;9.116;2023-05-27T01:18:06;16.63;;;10.48;;
59970;SDS011;45825;45.434;9.116;2023-05-27T01:20:34;18.95;;;11.25;;
59970;SDS011;45825;45.434;9.116;2023-05-27T01:23:05;18.02;;;11.35;;
59970;SDS011;45825;45.434;9.116;2023-05-27T01:25:32;18.88;;;11.75;;
59970;SDS011;45825;45.434;9.116;2023-05-27T01:27:57;15.63;;;10.98;;
59970;SDS011;45825;45.434;9.116;2023-05-27T01:30:23;16.42;;;11.63;;
59970;SDS011;45825;45.434;9.116;2023-05-27T01:32:50;18.83;;;12.27;;
59970;SDS011;45825;45.434;9.116;2023-05-27T01:35:24;19.02;;;11.88;;
59970;SDS011;45825;45.434;9.116;2023-05-27T01:37:52;16.25;;;11.20;;
59970;SDS011;45825;45.434;9.116;2023-05-27T01:40:20;16.65;;;11.40;;
59970;SDS011;45825;45.434;9.116;2023-05-27T01:42:46;16.48;;;12.02;;
59970;SDS011;45825;45.434;9.116;2023-05-27T01:45:12;16.58;;;11.88;;
59970;SDS011;45825;45.434;9.116;2023-05-27T01:47:39;18.50;;;11.40;;
59970;SDS011;45825;45.434;9.116;2023-05-27T01:50:05;18.85;;;12.45;;
59970;SDS011;45825;45.434;9.116;2023-05-27T01:52:30;18.05;;;12.00;;
59970;SDS011;45825;45.434;9.116;2023-05-27T01:54:56;19.77;;;12.00;;
59970;SDS011;45825;45.434;9.116;2023-05-27T01:57:23;17.67;;;11.60;;
59970;SDS011;45825;45.434;9.116;2023-05-27T01:59:49;17.65;;;12.05;;
59970;SDS011;45825;45.434;9.116;2023-05-27T02:02:15;18.83;;;12.13;;
59970;SDS011;45825;45.434;9.116;2023-05-27T02:04:40;15.63;;;11.93;;
59970;SDS011;45825;45.434;9.116;2023-05-27T02:07:05;17.77;;;11.98;;
59970;SDS011;45825;45.434;9.116;2023-05-27T02:09:31;17.60;;;12.18;;
59970;SDS011;45825;45.434;9.116;2023-05-27T02:11:56;19.08;;;12.68;;
59970;SDS011;45825;45.434;9.116;2023-05-27T02:14:21;17.63;;;11.95;;
59970;SDS011;45825;45.434;9.116;2023-05-27T02:16:47;21.83;;;13.68;;
59970;SDS011;45825;45.434;9.116;2023-05-27T02:19:14;17.88;;;12.63;;
59970;SDS011;45825;45.434;9.116;2023-05-27T02:21:40;17.85;;;12.70;;
59970;SDS011;45825;45.434;9.116;2023-05-27T02:24:05;18.60;;;12.73;;
59970;SDS011;45825;45.434;9.116;2023-05-27T02:26:31;18.33;;;12.68;;
59970;SDS011;45825;45.434;9.116;2023-05-27T02:28:56;17.92;;;12.40;;
59970;SDS011;45825;45.434;9.116;2023-05-27T02:31:21;16.15;;;12.05;;
59970;SDS011;45825;45.434;9.116;2023-05-27T02:33:47;17.90;;;12.02;;
59970;SDS011;45825;45.434;9.116;2023-05-27T02:36:12;17.17;;;12.00;;
59970;SDS011;45825;45.434;9.116;2023-05-27T02:38:38;16.55;;;11.90;;
59970;SDS011;45825;45.434;9.116;2023-05-27T02:41:04;17.70;;;12.18;;
59970;SDS011;45825;45.434;9.116;2023-05-27T02:43:29;13.77;;;10.82;;
59970;SDS011;45825;45.434;9.116;2023-05-27T02:45:54;16.38;;;11.75;;
59970;SDS011;45825;45.434;9.116;2023-05-27T02:48:20;16.77;;;10.75;;
59970;SDS011;45825;45.434;9.116;2023-05-27T02:50:45;15.65;;;10.23;;
59970;SDS011;45825;45.434;9.116;2023-05-27T02:53:10;13.73;;;10.45;;
59970;SDS011;45825;45.434;9.116;2023-05-27T02:55:36;15.00;;;10.07;;
59970;SDS011;45825;45.434;9.116;2023-05-27T02:58:01;13.05;;;10.10;;
59970;SDS011;45825;45.434;9.116;2023-05-27T03:00:28;15.93;;;10.30;;
59970;SDS011;45825;45.434;9.116;2023-05-27T03:02:53;15.32;;;9.63;;
59970;SDS011;45825;45.434;9.116;2023-05-27T03:05:19;14.93;;;10.13;;
59970;SDS011;45825;45.434;9.116;2023-05-27T03:07:44;14.50;;;10.07;;
59970;SDS011;45825;45.434;9.116;2023-05-27T03:10:10;13.93;;;10.38;;
59970;SDS011;45825;45.434;9.116;2023-05-27T03:12:35;15.43;;;10.15;;
59970;SDS011;45825;45.434;9.116;2023-05-27T03:15:00;14.63;;;9.65;;
59970;SDS011;45825;45.434;9.116;2023-05-27T03:17:26;12.45;;;9.20;;
59970;SDS011;45825;45.434;9.116;2023-05-27T03:19:51;12.70;;;10.25;;
59970;SDS011;45825;45.434;9.116;2023-05-27T03:22:17;12.93;;;10.18;;
59970;SDS011;45825;45.434;9.116;2023-05-27T03:24:42;13.02;;;10.05;;
59970;SDS011;45825;45.434;9.116;2023-05-27T03:27:08;14.50;;;10.55;;
59970;SDS011;45825;45.434;9.116;2023-05-27T03:29:33;15.45;;;10.85;;
59970;SDS011;45825;45.434;9.116;2023-05-27T03:31:59;15.82;;;10.38;;
59970;SDS011;45825;45.434;9.116;2023-05-27T03:34:24;15.77;;;12.05;;
59970;SDS011;45825;45.434;9.116;2023-05-27T03:36:50;15.68;;;11.15;;
59970;SDS011;45825;45.434;9.116;2023-05-27T03:39:16;16.27;;;12.25;;
59970;SDS011;45825;45.434;9.116;2023-05-27T03:41:42;19.90;;;12.40;;
59970;SDS011;45825;45.434;9.116;2023-05-27T03:44:07;16.38;;;12.70;;
59970;SDS011;45825;45.434;9.116;2023-05-27T03:46:33;17.90;;;12.50;;
59970;SDS011;45825;45.434;9.116;2023-05-27T03:49:01;17.02;;;12.50;;
59970;SDS011;45825;45.434;9.116;2023-05-27T03:51:27;15.18;;;11.45;;
59970;SDS011;45825;45.434;9.116;2023-05-27T03:53:52;18.38;;;11.40;;
59970;SDS011;45825;45.434;9.116;2023-05-27T03:56:18;18.60;;;11.65;;
59970;SDS011;45825;45.434;9.116;2023-05-27T03:58:44;15.40;;;10.63;;
59970;SDS011;45825;45.434;9.116;2023-05-27T04:01:10;14.05;;;10.05;;
59970;SDS011;45825;45.434;9.116;2023-05-27T04:03:36;13.27;;;9.15;;
59970;SDS011;45825;45.434;9.116;2023-05-27T04:06:02;15.45;;;9.63;;
59970;SDS011;45825;45.434;9.116;2023-05-27T04:08:27;15.75;;;9.38;;
59970;SDS011;45825;45.434;9.116;2023-05-27T04:10:53;12.48;;;8.70;;
59970;SDS011;45825;45.434;9.116;2023-05-27T04:13:19;14.25;;;8.13;;
59970;SDS011;45825;45.434;9.116;2023-05-27T04:15:46;12.10;;;7.90;;
59970;SDS011;45825;45.434;9.116;2023-05-27T04:18:11;12.27;;;7.43;;
59970;SDS011;45825;45.434;9.116;2023-05-27T04:20:37;12.60;;;6.90;;
59970;SDS011;45825;45.434;9.116;2023-05-27T04:23:05;11.77;;;6.70;;
59970;SDS011;45825;45.434;9.116;2023-05-27T04:25:31;9.68;;;6.50;;
59970;SDS011;45825;45.434;9.116;2023-05-27T04:27:56;10.43;;;6.45;;
59970;SDS011;45825;45.434;9.116;2023-05-27T04:30:22;9.40;;;6.05;;
59970;SDS011;45825;45.434;9.116;2023-05-27T04:32:47;9.07;;;5.93;;
59970;SDS011;45825;45.434;9.116;2023-05-27T04:35:13;10.65;;;5.47;;
59970;SDS011;45825;45.434;9.116;2023-05-27T04:37:38;9.60;;;5.50;;
59970;SDS011;45825;45.434;9.116;2023-05-27T04:40:05;8.82;;;5.28;;
59970;SDS011;45825;45.434;9.116;2023-05-27T04:42:33;7.72;;;4.60;;
59970;SDS011;45825;45.434;9.116;2023-05-27T04:45:01;7.53;;;4.47;;
59970;SDS011;45825;45.434;9.116;2023-05-27T04:47:29;7.72;;;4.22;;
59970;SDS011;45825;45.434;9.116;2023-05-27T04:49:55;8.48;;;3.97;;
59970;SDS011;45825;45.434;9.116;2023-05-27T04:52:21;7.25;;;4.00;;
59970;SDS011;45825;45.434;9.116;2023-05-27T04:54:48;6.20;;;3.83;;
59970;SDS011;45825;45.434;9.116;2023-05-27T04:57:13;7.47;;;4.22;;
59970;SDS011;45825;45.434;9.116;2023-05-27T04:59:44;7.88;;;3.88;;
59970;SDS011;45825;45.434;9.116;2023-05-27T05:02:28;7.35;;;3.58;;
59970;SDS011;45825;45.434;9.116;2023-05-27T05:05:03;8.30;;;3.58;;
59970;SDS011;45825;45.434;9.116;2023-05-27T05:07:30;6.57;;;3.20;;
59970;SDS011;45825;45.434;9.116;2023-05-27T05:09:56;6.53;;;3.28;;
59970;SDS011;45825;45.434;9.116;2023-05-27T05:12:21;6.20;;;3.05;;
59970;SDS011;45825;45.434;9.116;2023-05-27T05:14:47;8.90;;;3.08;;
59970;SDS011;45825;45.434;9.116;2023-05-27T05:17:12;6.63;;;2.90;;
59970;SDS011;45825;45.434;9.116;2023-05-27T05:19:38;6.40;;;2.95;;
59970;SDS011;45825;45.434;9.116;2023-05-27T05:22:03;5.70;;;3.20;;
59970;SDS011;45825;45.434;9.116;2023-05-27T05:24:29;5.00;;;3.17;;
59970;SDS011;45825;45.434;9.116;2023-05-27T05:26:54;5.88;;;3.20;;
59970;SDS011;45825;45.434;9.116;2023-05-27T05:29:19;5.13;;;3.00;;
59970;SDS011;45825;45.434;9.116;2023-05-27T05:31:45;6.53;;;3.30;;
59970;SDS011;45825;45.434;9.116;2023-05-27T05:34:10;7.30;;;3.10;;
59970;SDS011;45825;45.434;9.116;2023-05-27T05:36:36;5.50;;;2.83;;
59970;SDS011;45825;45.434;9.116;2023-05-27T05:39:02;5.72;;;3.00;;
59970;SDS011;45825;45.434;9.116;2023-05-27T05:41:28;6.85;;;3.28;;
59970;SDS011;45825;45.434;9.116;2023-05-27T05:43:54;6.35;;;3.30;;
59970;SDS011;45825;45.434;9.116;2023-05-27T05:46:19;6.13;;;3.30;;
59970;SDS011;45825;45.434;9.116;2023-05-27T05:48:44;6.40;;;3.67;;
59970;SDS011;45825;45.434;9.116;2023-05-27T05:51:10;6.72;;;3.42;;
59970;SDS011;45825;45.434;9.116;2023-05-27T05:53:35;7.55;;;3.95;;
59970;SDS011;45825;45.434;9.116;2023-05-27T05:56:01;7.68;;;4.00;;
59970;SDS011;45825;45.434;9.116;2023-05-27T05:58:26;8.45;;;4.18;;
59970;SDS011;45825;45.434;9.116;2023-05-27T06:00:51;8.20;;;3.83;;
59970;SDS011;45825;45.434;9.116;2023-05-27T06:03:17;8.40;;;4.13;;
59970;SDS011;45825;45.434;9.116;2023-05-27T06:05:42;7.75;;;4.50;;
59970;SDS011;45825;45.434;9.116;2023-05-27T06:08:13;7.72;;;4.43;;
59970;SDS011;45825;45.434;9.116;2023-05-27T06:10:38;8.15;;;4.53;;
59970;SDS011;45825;45.434;9.116;2023-05-27T06:13:03;8.32;;;4.60;;
59970;SDS011;45825;45.434;9.116;2023-05-27T06:15:29;6.72;;;4.60;;
59970;SDS011;45825;45.434;9.116;2023-05-27T06:17:55;9.05;;;4.65;;
59970;SDS011;45825;45.434;9.116;2023-05-27T06:20:21;6.97;;;4.43;;
59970;SDS011;45825;45.434;9.116;2023-05-27T06:22:47;7.72;;;4.70;;
59970;SDS011;45825;45.434;9.116;2023-05-27T06:25:13;9.73;;;5.00;;
59970;SDS011;45825;45.434;9.116;2023-05-27T06:27:38;9.52;;;4.60;;
59970;SDS011;45825;45.434;9.116;2023-05-27T06:30:03;8.23;;;4.75;;
59970;SDS011;45825;45.434;9.116;2023-05-27T06:32:29;7.35;;;4.20;;
59970;SDS011;45825;45.434;9.116;2023-05-27T06:34:55;9.13;;;4.88;;
59970;SDS011;45825;45.434;9.116;2023-05-27T06:37:20;8.68;;;4.45;;
59970;SDS011;45825;45.434;9.116;2023-05-27T06:39:46;8.90;;;4.70;;
59970;SDS011;45825;45.434;9.116;2023-05-27T06:42:11;10.57;;;4.85;;
59970;SDS011;45825;45.434;9.116;2023-05-27T06:44:36;7.88;;;4.75;;
59970;SDS011;45825;45.434;9.116;2023-05-27T06:47:02;6.95;;;4.60;;
59970;SDS011;45825;45.434;9.116;2023-05-27T06:49:27;9.15;;;5.05;;
59970;SDS011;45825;45.434;9.116;2023-05-27T06:51:53;8.23;;;4.45;;
59970;SDS011;45825;45.434;9.116;2023-05-27T06:54:18;8.20;;;5.20;;
59970;SDS011;45825;45.434;9.116;2023-05-27T06:56:43;8.85;;;5.20;;
59970;SDS011;45825;45.434;9.116;2023-05-27T06:59:09;9.90;;;5.97;;
59970;SDS011;45825;45.434;9.116;2023-05-27T07:01:34;9.45;;;5.63;;
59970;SDS011;45825;45.434;9.116;2023-05-27T07:04:00;10.75;;;5.32;;
59970;SDS011;45825;45.434;9.116;2023-05-27T07:06:25;13.05;;;6.18;;
59970;SDS011;45825;45.434;9.116;2023-05-27T07:08:50;9.40;;;5.68;;
59970;SDS011;45825;45.434;9.116;2023-05-27T07:11:16;9.68;;;6.20;;
59970;SDS011;45825;45.434;9.116;2023-05-27T07:13:41;9.27;;;6.28;;
59970;SDS011;45825;45.434;9.116;2023-05-27T07:16:06;10.48;;;6.45;;
59970;SDS011;45825;45.434;9.116;2023-05-27T07:18:32;11.07;;;6.88;;
59970;SDS011;45825;45.434;9.116;2023-05-27T07:20:57;9.85;;;6.90;;
59970;SDS011;45825;45.434;9.116;2023-05-27T07:23:22;10.00;;;7.32;;
59970;SDS011;45825;45.434;9.116;2023-05-27T07:25:48;10.98;;;7.70;;
59970;SDS011;45825;45.434;9.116;2023-05-27T07:28:13;11.05;;;7.13;;
59970;SDS011;45825;45.434;9.116;2023-05-27T07:30:38;10.77;;;7.43;;
59970;SDS011;45825;45.434;9.116;2023-05-27T07:33:03;11.00;;;7.70;;
59970;SDS011;45825;45.434;9.116;2023-05-27T07:35:29;11.98;;;7.82;;
59970;SDS011;45825;45.434;9.116;2023-05-27T07:37:54;10.63;;;7.65;;
59970;SDS011;45825;45.434;9.116;2023-05-27T07:40:19;11.45;;;7.95;;
59970;SDS011;45825;45.434;9.116;2023-05-27T07:42:45;10.50;;;7.45;;
59970;SDS011;45825;45.434;9.116;2023-05-27T07:45:10;11.60;;;7.38;;
59970;SDS011;45825;45.434;9.116;2023-05-27T07:47:36;12.07;;;7.07;;
59970;SDS011;45825;45.434;9.116;2023-05-27T07:50:01;10.48;;;7.50;;
59970;SDS011;45825;45.434;9.116;2023-05-27T07:52:26;10.90;;;7.50;;
59970;SDS011;45825;45.434;9.116;2023-05-27T07:54:51;9.70;;;7.63;;
59970;SDS011;45825;45.434;9.116;2023-05-27T07:57:17;11.02;;;7.47;;
59970;SDS011;45825;45.434;9.116;2023-05-27T07:59:42;11.43;;;7.53;;
59970;SDS011;45825;45.434;9.116;2023-05-27T08:02:08;12.43;;;7.63;;
59970;SDS011;45825;45.434;9.116;2023-05-27T08:04:34;16.48;;;11.82;;
59970;SDS011;45825;45.434;9.116;2023-05-27T08:06:59;15.68;;;8.35;;
59970;SDS011;45825;45.434;9.116;2023-05-27T08:09:24;12.65;;;7.55;;
59970;SDS011;45825;45.434;9.116;2023-05-27T08:11:50;21.42;;;8.15;;
59970;SDS011;45825;45.434;9.116;2023-05-27T08:14:15;10.88;;;7.68;;
59970;SDS011;45825;45.434;9.116;2023-05-27T08:16:41;12.38;;;7.70;;
59970;SDS011;45825;45.434;9.116;2023-05-27T08:19:07;11.95;;;8.18;;
59970;SDS011;45825;45.434;9.116;2023-05-27T08:21:32;11.38;;;7.43;;
59970;SDS011;45825;45.434;9.116;2023-05-27T08:23:57;11.55;;;7.68;;
59970;SDS011;45825;45.434;9.116;2023-05-27T08:26:23;11.40;;;8.13;;
59970;SDS011;45825;45.434;9.116;2023-05-27T08:28:48;11.35;;;7.90;;
59970;SDS011;45825;45.434;9.116;2023-05-27T08:31:13;11.48;;;7.72;;
59970;SDS011;45825;45.434;9.116;2023-05-27T08:33:39;12.15;;;8.32;;
59970;SDS011;45825;45.434;9.116;2023-05-27T08:36:05;12.43;;;7.85;;
59970;SDS011;45825;45.434;9.116;2023-05-27T08:38:30;11.95;;;7.47;;
59970;SDS011;45825;45.434;9.116;2023-05-27T08:40:56;8.90;;;6.57;;
59970;SDS011;45825;45.434;9.116;2023-05-27T08:43:22;10.35;;;7.47;;
59970;SDS011;45825;45.434;9.116;2023-05-27T08:45:49;11.43;;;7.13;;
59970;SDS011;45825;45.434;9.116;2023-05-27T08:48:15;11.52;;;7.22;;
59970;SDS011;45825;45.434;9.116;2023-05-27T08:50:40;10.27;;;7.28;;
59970;SDS011;45825;45.434;9.116;2023-05-27T08:53:05;10.85;;;7.97;;
59970;SDS011;45825;45.434;9.116;2023-05-27T08:55:33;11.43;;;7.82;;
59970;SDS011;45825;45.434;9.116;2023-05-27T08:57:59;10.70;;;7.13;;
59970;SDS011;45825;45.434;9.116;2023-05-27T09:00:26;11.88;;;7.45;;
59970;SDS011;45825;45.434;9.116;2023-05-27T09:02:52;11.20;;;7.70;;
59970;SDS011;45825;45.434;9.116;2023-05-27T09:05:21;10.77;;;7.32;;
59970;SDS011;45825;45.434;9.116;2023-05-27T09:07:47;11.13;;;7.32;;
59970;SDS011;45825;45.434;9.116;2023-05-27T09:10:13;11.20;;;8.48;;
59970;SDS011;45825;45.434;9.116;2023-05-27T09:12:41;12.50;;;7.18;;
59970;SDS011;45825;45.434;9.116;2023-05-27T09:15:09;12.38;;;7.95;;
59970;SDS011;45825;45.434;9.116;2023-05-27T09:17:39;11.50;;;7.60;;
59970;SDS011;45825;45.434;9.116;2023-05-27T09:20:08;11.98;;;7.57;;
59970;SDS011;45825;45.434;9.116;2023-05-27T09:22:35;11.23;;;8.35;;
59970;SDS011;45825;45.434;9.116;2023-05-27T09:25:01;12.25;;;8.30;;
59970;SDS011;45825;45.434;9.116;2023-05-27T09:27:27;11.25;;;7.35;;
59970;SDS011;45825;45.434;9.116;2023-05-27T09:29:53;11.35;;;7.22;;
59970;SDS011;45825;45.434;9.116;2023-05-27T09:34:52;9.52;;;7.05;;
59970;SDS011;45825;45.434;9.116;2023-05-27T09:37:18;10.73;;;7.95;;
59970;SDS011;45825;45.434;9.116;2023-05-27T09:39:46;10.93;;;7.38;;
59970;SDS011;45825;45.434;9.116;2023-05-27T09:42:11;14.27;;;8.80;;
59970;SDS011;45825;45.434;9.116;2023-05-27T09:44:38;13.32;;;8.73;;
59970;SDS011;45825;45.434;9.116;2023-05-27T09:47:05;12.38;;;8.00;;
59970;SDS011;45825;45.434;9.116;2023-05-27T09:49:34;12.05;;;8.77;;
59970;SDS011;45825;45.434;9.116;2023-05-27T09:52:02;13.65;;;8.32;;
59970;SDS011;45825;45.434;9.116;2023-05-27T09:54:29;12.88;;;8.10;;
59970;SDS011;45825;45.434;9.116;2023-05-27T09:56:56;10.60;;;7.68;;
59970;SDS011;45825;45.434;9.116;2023-05-27T09:59:22;10.88;;;8.48;;
59970;SDS011;45825;45.434;9.116;2023-05-27T10:01:47;13.23;;;9.25;;
59970;SDS011;45825;45.434;9.116;2023-05-27T10:04:14;11.27;;;7.90;;
59970;SDS011;45825;45.434;9.116;2023-05-27T10:06:41;11.48;;;7.78;;
59970;SDS011;45825;45.434;9.116;2023-05-27T10:09:07;9.75;;;7.60;;
59970;SDS011;45825;45.434;9.116;2023-05-27T10:11:33;10.80;;;7.90;;
59970;SDS011;45825;45.434;9.116;2023-05-27T10:14:03;11.80;;;8.45;;
59970;SDS011;45825;45.434;9.116;2023-05-27T10:16:30;11.30;;;7.75;;
59970;SDS011;45825;45.434;9.116;2023-05-27T10:18:56;12.55;;;7.80;;
59970;SDS011;45825;45.434;9.116;2023-05-27T10:21:23;11.75;;;8.23;;
59970;SDS011;45825;45.434;9.116;2023-05-27T10:23:56;11.65;;;7.80;;
59970;SDS011;45825;45.434;9.116;2023-05-27T10:29:14;11.23;;;8.75;;
59970;SDS011;45825;45.434;9.116;2023-05-27T10:31:51;12.48;;;7.15;;
59970;SDS011;45825;45.434;9.116;2023-05-27T10:34:17;10.75;;;8.27;;
59970;SDS011;45825;45.434;9.116;2023-05-27T10:36:43;12.55;;;8.93;;
59970;SDS011;45825;45.434;9.116;2023-05-27T10:39:22;11.68;;;9.35;;
59970;SDS011;45825;45.434;9.116;2023-05-27T10:41:49;11.32;;;7.47;;
59970;SDS011;45825;45.434;9.116;2023-05-27T10:47:00;11.65;;;7.93;;
59970;SDS011;45825;45.434;9.116;2023-05-27T10:49:36;12.68;;;8.13;;
59970;SDS011;45825;45.434;9.116;2023-05-27T10:52:07;10.93;;;9.05;;
59970;SDS011;45825;45.434;9.116;2023-05-27T10:54:40;13.48;;;9.77;;
59970;SDS011;45825;45.434;9.116;2023-05-27T10:57:07;11.27;;;8.82;;
59970;SDS011;45825;45.434;9.116;2023-05-27T10:59:40;12.10;;;8.25;;
59970;SDS011;45825;45.434;9.116;2023-05-27T11:02:12;14.90;;;9.13;;
59970;SDS011;45825;45.434;9.116;2023-05-27T11:04:38;12.80;;;8.98;;
59970;SDS011;45825;45.434;9.116;2023-05-27T11:07:03;14.23;;;9.70;;
59970;SDS011;45825;45.434;9.116;2023-05-27T11:09:29;14.68;;;9.55;;
59970;SDS011;45825;45.434;9.116;2023-05-27T11:11:55;15.73;;;9.95;;
59970;SDS011;45825;45.434;9.116;2023-05-27T11:14:21;14.00;;;9.60;;
59970;SDS011;45825;45.434;9.116;2023-05-27T11:16:47;16.92;;;8.75;;
59970;SDS011;45825;45.434;9.116;2023-05-27T11:19:17;15.05;;;10.93;;
59970;SDS011;45825;45.434;9.116;2023-05-27T11:21:44;15.93;;;8.85;;
59970;SDS011;45825;45.434;9.116;2023-05-27T11:24:16;13.80;;;10.00;;
59970;SDS011;45825;45.434;9.116;2023-05-27T11:26:43;14.13;;;9.60;;
59970;SDS011;45825;45.434;9.116;2023-05-27T11:29:13;14.82;;;9.77;;
59970;SDS011;45825;45.434;9.116;2023-05-27T11:31:39;12.25;;;8.63;;
59970;SDS011;45825;45.434;9.116;2023-05-27T11:34:15;12.57;;;8.05;;
59970;SDS011;45825;45.434;9.116;2023-05-27T11:36:43;11.77;;;8.52;;
59970;SDS011;45825;45.434;9.116;2023-05-27T11:39:11;13.43;;;9.70;;
59970;SDS011;45825;45.434;9.116;2023-05-27T11:41:49;13.38;;;7.93;;
59970;SDS011;45825;45.434;9.116;2023-05-27T11:44:16;14.32;;;10.02;;
59970;SDS011;45825;45.434;9.116;2023-05-27T11:46:43;12.38;;;8.27;;
59970;SDS011;45825;45.434;9.116;2023-05-27T11:49:10;11.98;;;7.97;;
59970;SDS011;45825;45.434;9.116;2023-05-27T11:51:42;11.30;;;7.75;;
59970;SDS011;45825;45.434;9.116;2023-05-27T11:54:27;12.90;;;8.43;;
59970;SDS011;45825;45.434;9.116;2023-05-27T11:56:54;10.13;;;7.25;;
59970;SDS011;45825;45.434;9.116;2023-05-27T11:59:21;13.85;;;8.63;;
59970;SDS011;45825;45.434;9.116;2023-05-27T12:01:48;13.73;;;8.30;;
59970;SDS011;45825;45.434;9.116;2023-05-27T12:04:14;12.63;;;7.63;;
59970;SDS011;45825;45.434;9.116;2023-05-27T12:06:40;11.88;;;7.55;;
59970;SDS011;45825;45.434;9.116;2023-05-27T12:09:06;10.32;;;7.75;;
59970;SDS011;45825;45.434;9.116;2023-05-27T12:11:35;13.00;;;9.20;;
59970;SDS011;45825;45.434;9.116;2023-05-27T12:14:01;12.30;;;7.93;;
59970;SDS011;45825;45.434;9.116;2023-05-27T12:16:27;12.00;;;7.82;;
59970;SDS011;45825;45.434;9.116;2023-05-27T12:21:38;13.30;;;8.10;;
59970;SDS011;45825;45.434;9.116;2023-05-27T12:24:04;12.50;;;7.72;;
59970;SDS011;45825;45.434;9.116;2023-05-27T12:26:30;10.55;;;8.15;;
59970;SDS011;45825;45.434;9.116;2023-05-27T12:28:55;12.18;;;8.13;;
59970;SDS011;45825;45.434;9.116;2023-05-27T12:31:21;12.17;;;8.87;;
59970;SDS011;45825;45.434;9.116;2023-05-27T12:33:47;11.48;;;7.80;;
59970;SDS011;45825;45.434;9.116;2023-05-27T12:36:12;12.95;;;8.27;;
59970;SDS011;45825;45.434;9.116;2023-05-27T12:38:37;9.68;;;6.53;;
59970;SDS011;45825;45.434;9.116;2023-05-27T12:41:03;9.68;;;7.00;;
59970;SDS011;45825;45.434;9.116;2023-05-27T12:43:28;10.57;;;7.20;;
59970;SDS011;45825;45.434;9.116;2023-05-27T12:45:54;9.82;;;6.75;;
59970;SDS011;45825;45.434;9.116;2023-05-27T12:48:19;9.95;;;7.53;;
59970;SDS011;45825;45.434;9.116;2023-05-27T12:50:46;10.32;;;7.03;;
59970;SDS011;45825;45.434;9.116;2023-05-27T12:53:11;9.87;;;6.40;;
59970;SDS011;45825;45.434;9.116;2023-05-27T12:55:36;9.25;;;6.47;;
59970;SDS011;45825;45.434;9.116;2023-05-27T12:58:02;10.43;;;6.43;;
59970;SDS011;45825;45.434;9.116;2023-05-27T13:00:27;10.27;;;7.25;;
59970;SDS011;45825;45.434;9.116;2023-05-27T13:02:53;9.73;;;5.68;;
59970;SDS011;45825;45.434;9.116;2023-05-27T13:05:18;9.15;;;5.30;;
59970;SDS011;45825;45.434;9.116;2023-05-27T13:07:54;9.88;;;6.30;;
59970;SDS011;45825;45.434;9.116;2023-05-27T13:10:24;9.82;;;5.97;;
59970;SDS011;45825;45.434;9.116;2023-05-27T13:12:49;10.32;;;5.95;;
59970;SDS011;45825;45.434;9.116;2023-05-27T13:15:16;10.00;;;5.47;;
59970;SDS011;45825;45.434;9.116;2023-05-27T13:17:42;9.18;;;6.10;;
59970;SDS011;45825;45.434;9.116;2023-05-27T13:20:11;10.75;;;5.43;;
59970;SDS011;45825;45.434;9.116;2023-05-27T13:22:41;10.05;;;6.10;;
59970;SDS011;45825;45.434;9.116;2023-05-27T13:25:08;11.05;;;5.55;;
59970;SDS011;45825;45.434;9.116;2023-05-27T13:27:33;10.13;;;6.25;;
59970;SDS011;45825;45.434;9.116;2023-05-27T13:29:59;9.55;;;5.40;;
59970;SDS011;45825;45.434;9.116;2023-05-27T13:32:24;9.38;;;5.93;;
59970;SDS011;45825;45.434;9.116;2023-05-27T13:34:50;8.00;;;5.22;;
59970;SDS011;45825;45.434;9.116;2023-05-27T13:37:17;7.45;;;4.95;;
59970;SDS011;45825;45.434;9.116;2023-05-27T13:39:42;9.48;;;5.30;;
59970;SDS011;45825;45.434;9.116;2023-05-27T13:42:09;9.93;;;4.93;;
59970;SDS011;45825;45.434;9.116;2023-05-27T13:44:35;7.90;;;5.15;;
59970;SDS011;45825;45.434;9.116;2023-05-27T13:47:00;9.13;;;5.72;;
59970;SDS011;45825;45.434;9.116;2023-05-27T13:49:26;9.25;;;5.32;;
59970;SDS011;45825;45.434;9.116;2023-05-27T13:51:51;9.70;;;6.07;;
59970;SDS011;45825;45.434;9.116;2023-05-27T13:54:16;9.55;;;5.90;;
59970;SDS011;45825;45.434;9.116;2023-05-27T13:56:42;8.18;;;5.20;;
59970;SDS011;45825;45.434;9.116;2023-05-27T13:59:08;8.68;;;5.97;;
59970;SDS011;45825;45.434;9.116;2023-05-27T14:01:34;10.05;;;4.70;;
59970;SDS011;45825;45.434;9.116;2023-05-27T14:04:00;7.93;;;4.43;;
59970;SDS011;45825;45.434;9.116;2023-05-27T14:06:25;9.48;;;4.90;;
59970;SDS011;45825;45.434;9.116;2023-05-27T14:08:51;7.97;;;5.43;;
59970;SDS011;45825;45.434;9.116;2023-05-27T14:11:17;7.88;;;4.88;;
59970;SDS011;45825;45.434;9.116;2023-05-27T14:13:42;9.48;;;5.40;;
59970;SDS011;45825;45.434;9.116;2023-05-27T14:16:08;8.55;;;5.45;;
59970;SDS011;45825;45.434;9.116;2023-05-27T14:18:33;9.32;;;5.93;;
59970;SDS011;45825;45.434;9.116;2023-05-27T14:20:59;8.63;;;5.93;;
59970;SDS011;45825;45.434;9.116;2023-05-27T14:23:24;7.68;;;5.18;;
59970;SDS011;45825;45.434;9.116;2023-05-27T14:25:50;9.25;;;6.07;;
59970;SDS011;45825;45.434;9.116;2023-05-27T14:28:15;10.98;;;5.75;;
59970;SDS011;45825;45.434;9.116;2023-05-27T14:30:41;7.63;;;5.30;;
59970;SDS011;45825;45.434;9.116;2023-05-27T14:33:06;8.57;;;5.13;;
59970;SDS011;45825;45.434;9.116;2023-05-27T14:35:35;8.82;;;5.22;;
59970;SDS011;45825;45.434;9.116;2023-05-27T14:38:04;8.38;;;5.47;;
59970;SDS011;45825;45.434;9.116;2023-05-27T14:40:30;11.05;;;5.65;;
59970;SDS011;45825;45.434;9.116;2023-05-27T14:42:56;9.55;;;6.53;;
59970;SDS011;45825;45.434;9.116;2023-05-27T14:45:21;9.98;;;5.75;;